Sayre, OK (73662)

2:26 PM CST on March 04, 2015 (GMT -0600)
Western Oklahoma | Change Station
CLOSE
Current Station
Personal Weather Station
Location: Erick, OK
Elevation: 1978 ft
Nearby Weather Stations
Active Advisory: Winter Weather Advisory

Elev 1978 ft 35.25 °N, 99.79 °W | Updated 15 seconds ago

Snow
Snow
23.7 °F
Feels Like 24 °F
N
2.0
Wind Variable Wind from SE
Gusts 2.5 mph

Today
High -- | Low -- °F
--% Chance of Precip.
Yesterday
High -- | Low -- °F
Precip. -- in
7:04 AM 6:36 PM
Waxing Gibbous, 99% visible
Pressure 30.17 in
Visibility 0.5 miles
Clouds Scattered Clouds 900 ft
Mostly Cloudy 1300 ft
Overcast 3300 ft
Windchill 24 °F
Dew Point 18 °F
Humidity 78%
Rainfall 0.00 in
Snow Depth Not available.
UV 2 out of 12
Pollen .90 out of 12
Air Quality Not available.
Flu Activity Not available.
SPECI KCSM 042018Z AUTO 01021KT 1/2SM SN FZFG SCT009 BKN013 OVC033 M05/M07 A3017 RMK AO2 PK WND 02031/1955 P0000 T10501072

More Conditions Fewer Conditions

Pressure 30.17 in
Visibility 0.5 miles
Clouds Scattered Clouds 900 ft
Mostly Cloudy 1300 ft
Overcast 3300 ft
Windchill 24 °F
Dew Point 18 °F
Humidity 78%
Rainfall 0.00 in
Snow Depth Not available.
UV 2 out of 12
Pollen .90 out of 12
Air Quality Not available.
Flu Activity Not available.
SPECI KCSM 042018Z AUTO 01021KT 1/2SM SN FZFG SCT009 BKN013 OVC033 M05/M07 A3017 RMK AO2 PK WND 02031/1955 P0000 T10501072

More Conditions Fewer Conditions

10-Day Weather Forecast

Almanac

Astronomy

Mar. 04, 2015 Rise Set
Actual Time
Civil Twilight
Nautical Twilight
Astronomical Twilight
Moon
Length of Visible Light
Length of Day
Tomorrow will be .
, % of the Moon is Illuminated

Today's Extremes

State Highs State Lows

Community

WunderPhotos

Upload Photos

1,802,575 photos uploaded!

WunderBlogs® & News

Nearby

Air Quality

  Air Quality AQ Index Pollutant
Not available.

Snow Depth

Station Depth Elevation

Earthquake Activity

City Distance Mag. Time & Date
Minimum magnitude displayed is 2.5.

Coastal Water Temperatures

Place Temperature

Nearby Weather Stations

Winter Weather Advisory
Statement as of 12:09 PM CST on March 04, 2015

... Winter Weather Advisory remains in effect until 6 PM CST this
evening...

A Winter Weather Advisory remains in effect until 6 PM CST this
evening.

* Timing: areas of snow will continue this afternoon before slowly
decreasing late this afternoon.

* Snow accumulations: snow accumulations of one to two inches are
possible today.

* Main impact: slick roadways are expected from snow and from
freezing rain that occurred this morning.

Precautionary/preparedness actions...

Be careful if you have to travel. Even small amounts of ice and
snow can make roads and sidewalks slick and dangerous.